This is the latest recevied weather packets stored in our database for station/object VA7SHG-1. If no packets are shown the sender has not sent any weather packets the latest 10 day(s).
| Time | Temp. | Humidity | Pressure | Rain* | Wind** | Luminosity | Snow |
|---|---|---|---|---|---|---|---|
| 1777558523 | 12.78° C | 75% | 1023.2 hPa | 0 mm | - | 134 W/m² | - |
| 1777554351 | 8.89° C | 89% | 1022.8 hPa | 0 mm | - | 13 W/m² | - |
| 1777550135 | 10° C | 86% | 1022.8 hPa | 0 mm | - | 0 W/m² | - |
| 1777548332 | 10° C | 84% | 1022.9 hPa | 0 mm | - | 0 W/m² | - |
| 1777543531 | 11.11° C | 81% | 1022.9 hPa | 0 mm | - | 0 W/m² | - |
| 1777540524 | 12.22° C | 77% | 1023.1 hPa | 0 mm | - | 0 W/m² | - |
| 1777539932 | 12.22° C | 77% | 1023.1 hPa | 0 mm | - | 0 W/m² | - |
| 1777538124 | 12.22° C | 78% | 1023.3 hPa | 0 mm | - | 0 W/m² | - |
| 1777537532 | 12.22° C | 79% | 1023.3 hPa | 0 mm | - | 0 W/m² | - |
| 1777536923 | 12.78° C | 78% | 1023.3 hPa | 0 mm | - | 0 W/m² | - |
| 1777532731 | 13.33° C | 77% | 1023 hPa | 0 mm | - | 0 W/m² | - |
| 1777530331 | 13.89° C | 75% | 1022.8 hPa | 0 mm | - | 0 W/m² | - |
| 1777526123 | 14.44° C | 69% | 1022.9 hPa | 0 mm | - | 0 W/m² | - |
| 1777523723 | 15.56° C | 64% | 1022.9 hPa | 0 mm | - | 0 W/m² | - |
| 1777521951 | 16.67° C | 58% | 1022.8 hPa | 0 mm | - | 0 W/m² | - |
| 1777519531 | 17.78° C | 55% | 1022.4 hPa | 0 mm | - | 4 W/m² | - |
| 1777518352 | 18.33° C | 54% | 1022.4 hPa | 0 mm | - | 17 W/m² | - |
| 1777515931 | 19.44° C | 53% | 1022.4 hPa | 0 mm | - | 52 W/m² | - |
| 1777509932 | 21.67° C | 49% | 1022.5 hPa | 0 mm | - | 311 W/m² | - |
| 1777505131 | 22.22° C | 45% | 1022.8 hPa | 0 mm | - | 550 W/m² | - |
| 1777503932 | 22.22° C | 45% | 1023.1 hPa | 0 mm | - | 606 W/m² | - |
| 1777501532 | 21.67° C | 46% | 1023.5 hPa | 0 mm | - | 724 W/m² | - |
| 1777496731 | 20° C | 48% | 1024.2 hPa | 0 mm | - | 900 W/m² | - |
| 1777495532 | 19.44° C | 50% | 1024.3 hPa | 0 mm | - | 919 W/m² | - |
| 1777492543 | 18.89° C | 51% | 1024.7 hPa | 0 mm | - | 943 W/m² | - |
* Rain latest hour (hover to see other rain measurements)
** Current wind speed in m/s (hover to see current wind gust speed)